Data for 10/09/2016

Time Sea-Level Adjusted Pressure Absolute Pressure Temperature Relative Humidity Dew Point   
(mb) (inHg) (mb) (inHg) (C) (F) (%) (C) (F)
00:05 1019 30.09 848 25.04 10.9 51.5 45 -0.4 31.2
00:10 1019 30.09 848 25.04 10.8 51.5 46 -0.3 31.5
00:15 1019 30.09 848 25.04 10.7 51.2 46 -0.4 31.2
00:20 1019 30.09 848 25.04 10.6 51.2 46 -0.4 31.2
00:25 1019 30.09 848 25.04 10.6 51 46 -0.5 31.1
00:30 1019 30.09 848 25.04 10.4 50.8 47 -0.3 31.5
00:35 1019 30.09 848 25.04 10.3 50.6 46 -0.6 30.9
00:40 1019 30.09 848 25.04 10.3 50.6 48 -0.3 31.5
00:45 1019 30.09 848 25.04 10.1 50.2 47 -0.6 31
00:50 1019 30.09 848 25.04 10.2 50.4 48 -0.3 31.5
00:55 1019 30.09 848 25.04 9.9 49.9 49 -0.3 31.5
01:00 1019 30.09 848 25.04 9.8 49.7 49 -0.3 31.4
01:05 1019 30.09 848 25.04 9.8 49.7 49 -0.4 31.2
01:10 1019 30.09 848 25.04 9.7 49.4 50 -0.3 31.5
01:15 1019 30.09 848 25.04 9.5 49.2 50 -0.2 31.6
01:20 1019 30.09 848 25.04 9.3 48.7 51 -0.3 31.5
01:25 1019 30.09 848 25.04 9.3 48.8 51 -0.3 31.5
01:30 1019 30.09 848 25.04 9.3 48.7 51 -0.4 31.3
01:35 1019 30.09 848 25.04 9.4 48.9 49 -0.7 30.8
01:40 1018 30.06 848 25.04 9.9 49.7 48 -0.5 31.2
01:45 1018 30.06 848 25.04 9.7 49.5 48 -0.8 30.6
01:50 1018 30.06 848 25.04 9.8 49.7 48 -0.7 30.7
01:55 1018 30.06 848 25.04 9.8 49.7 46 -1.2 29.9
02:00 1018 30.06 848 25.04 10.1 50.2 46 -1 30.3
02:05 1019 30.09 848 25.04 10 49.9 48 -0.6 30.9
02:10 1018 30.06 848 25.04 9.7 49.5 48 -0.6 30.9
02:15 1018 30.06 848 25.04 9.9 49.8 46 -1.3 29.7
02:20 1018 30.06 848 25.04 10.1 50.2 46 -1 30.3
02:25 1018 30.06 848 25.04 10.3 50.6 45 -1.2 29.9
02:30 1018 30.06 847 25.01 10.4 50.6 44 -1.2 29.9
02:35 1018 30.06 847 25.01 10.4 50.7 45 -1 30.1
02:40 1018 30.06 847 25.01 10.3 50.5 46 -0.8 30.5
02:45 1018 30.06 847 25.01 9.9 49.8 46 -1.1 29.9
02:50 1018 30.06 847 25.01 9.8 49.6 46 -1.2 29.8
02:55 1018 30.06 847 25.01 9.9 49.8 45 -1.5 29.3
03:00 1018 30.06 847 25.01 9.9 49.9 47 -0.9 30.4
03:05 1018 30.06 847 25.01 9.4 49 47 -1.1 29.9
03:10 1018 30.06 847 25.01 9.5 49.1 46 -1.6 29.1
03:15 1018 30.06 847 25.01 9.4 49 49 -0.8 30.6
03:20 1018 30.06 847 25.01 9.5 49 45 -2 28.5
03:25 1018 30.06 847 25.01 10.1 50.2 44 -1.5 29.3
03:30 1018 30.06 847 25.01 10.2 50.3 43 -1.7 28.9
03:35 1018 30.06 847 25.01 10.9 51.7 41 -1.8 28.7
03:40 1018 30.06 847 25.01 11 51.8 44 -0.9 30.4
03:45 1018 30.06 847 25.01 10.3 50.5 41 -2.3 27.9
03:50 1018 30.06 847 25.01 11.2 52.1 39 -2.4 27.7
03:55 1018 30.06 847 25.01 11.6 52.9 40 -1.6 29.1
04:00 1018 30.06 847 25.01 11.2 52.1 40 -1.8 28.8
04:05 1018 30.06 847 25.01 11.1 51.9 40 -2 28.4
04:10 1018 30.06 847 25.01 11.1 52 40 -2 28.3
04:15 1017 30.03 847 25.01 11.3 52.4 37 -2.8 27
04:20 1018 30.06 847 25.01 11.9 53.5 37 -2.4 27.7
04:25 1017 30.03 847 25.01 12.1 53.8 37 -2.2 28
04:30 1017 30.03 847 25.01 12 53.5 36 -2.6 27.3
04:35 1017 30.03 847 25.01 11.9 53.5 40 -1.3 29.6
04:40 1017 30.03 847 25.01 10.4 50.7 45 -1.1 30.1
04:45 1017 30.03 846 24.98 9.7 49.4 45 -1.7 28.9
04:50 1017 30.03 846 24.98 10 50.1 43 -2.1 28.3
04:55 1017 30.03 846 24.98 10.6 51.1 42 -1.6 29.1
05:00 1017 30.03 846 24.98 11.1 52 39 -2.3 27.9
05:05 1017 30.03 846 24.98 11.7 53.1 36 -2.6 27.3
05:10 1017 30.03 846 24.98 12.2 53.9 35 -2.8 26.9
05:15 1017 30.03 846 24.98 12.3 54.1 38 -1.7 28.9
05:20 1017 30.03 846 24.98 10.8 51.5 41 -1.8 28.8
05:25 1017 30.03 846 24.98 10.9 51.7 38 -2.7 27.1
05:30 1017 30.03 846 24.98 11.5 52.6 38 -2.3 27.8
05:35 1017 30.03 846 24.98 11.6 52.9 39 -1.7 28.9
05:40 1017 30.03 846 24.98 11.5 52.8 39 -1.8 28.8
05:45 1017 30.03 846 24.98 11.4 52.6 39 -2 28.5
05:50 1017 30.03 846 24.98 10.8 51.5 41 -2 28.4
05:55 1017 30.03 846 24.98 10.4 50.6 43 -1.7 29
06:00 1017 30.03 846 24.98 10.1 50.2 42 -2.2 28
06:05 1017 30.03 846 24.98 10.6 51.1 39 -2.6 27.4
06:10 1017 30.03 846 24.98 11.2 52.1 38 -2.4 27.6
06:15 1017 30.03 846 24.98 11.2 52.1 39 -2.1 28.2
06:20 1017 30.03 846 24.98 11.2 52.2 38 -2.4 27.7
06:25 1017 30.03 846 24.98 11 51.8 41 -1.8 28.8
06:30 1017 30.03 846 24.98 10.6 51.2 40 -2.3 27.8
06:35 1017 30.03 846 24.98 10.8 51.4 40 -2.2 28.1
06:40 1017 30.03 846 24.98 10.6 51.1 41 -2 28.3
06:45 1017 30.03 846 24.98 10.7 51.3 39 -2.5 27.5
06:50 1017 30.03 846 24.98 11.3 52.3 38 -2.3 27.8
06:55 1017 30.03 846 24.98 11.5 52.7 38 -2.3 27.8
07:00 1017 30.03 846 24.98 11.7 53 36 -2.9 26.7
07:05 1017 30.03 846 24.98 12.7 54.9 33 -3.2 26.2
07:10 1017 30.03 846 24.98 13.3 55.9 33 -2.7 27.2
07:15 1017 30.03 846 24.98 13.4 56 32 -3.1 26.4
07:20 1017 30.03 846 24.98 14.2 57.6 29 -3.4 25.9
07:25 1017 30.03 846 24.98 15 59.1 28 -3.3 26
07:30 1017 30.03 846 24.98 15.3 59.5 28 -3.2 26.2
07:35 1017 30.03 846 24.98 15.5 59.9 27 -3.1 26.4
07:40 1017 30.03 846 24.98 15.7 60.3 27 -3.4 26
07:45 1017 30.03 846 24.98 16 60.8 26 -3.4 25.9
07:50 1017 30.03 846 24.98 16.3 61.3 26 -3 26.6
07:55 1017 30.03 846 24.98 16.6 61.9 25 -3.3 26.1
08:00 1017 30.03 846 24.98 17.1 62.8 24 -3.3 26.1
08:05 1017 30.03 846 24.98 17.5 63.4 24 -3.3 26.1
08:10 1017 30.03 846 24.98 17.7 63.8 24 -3.2 26.2
08:15 1017 30.03 846 24.98 17.8 64.1 22 -4 24.8
08:20 1017 30.03 846 24.98 18 64.3 23 -3.2 26.2
08:25 1017 30.03 846 24.98 17.9 64.1 28 -0.7 30.7
08:30 1017 30.03 846 24.98 16.1 61.1 32 -0.4 31.3
08:35 1017 30.03 846 24.98 15.6 60.2 33 -0.5 31.1
08:40 1017 30.03 846 24.98 16.1 61 31 -0.9 30.4
08:45 1017 30.03 846 24.98 16.5 61.7 32 -0 32
08:50 1017 30.03 846 24.98 16.8 62.3 31 -0.1 31.8
08:55 1017 30.03 846 24.98 17.1 62.7 31 -0 32
09:00 1017 30.03 846 24.98 17.7 63.9 29 -0.5 31.1
09:05 1017 30.03 846 24.98 18.3 64.9 25 -2.1 28.2
09:10 1017 30.03 846 24.98 18.8 65.9 22 -3.2 26.2
09:15 1017 30.03 846 24.98 19 66.1 22 -3.2 26.2
09:20 1017 30.03 846 24.98 19 66.3 22 -3 26.6
09:25 1017 30.03 846 24.98 19.3 66.7 22 -2.9 26.9
09:30 1017 30.03 846 24.98 19.4 66.9 22 -2.8 26.9
09:35 1017 30.03 846 24.98 19.3 66.7 22 -2.9 26.9
09:40 1016 30 846 24.98 19.4 66.8 23 -2.4 27.7
09:45 1016 30 846 24.98 20 68 23 -1.7 28.9
09:50 1016 30 846 24.98 20.5 68.9 23 -1.2 29.8
09:55 1016 30 846 24.98 20.7 69.3 21 -2.4 27.7
10:00 1016 30 846 24.98 20.8 69.4 20 -3.1 26.4
10:05 1016 30 846 24.98 20.7 69.2 20 -2.8 27
10:10 1016 30 846 24.98 20.7 69.3 20 -3 26.6
10:15 1016 30 846 24.98 20.6 69.1 19 -3.5 25.6
10:20 1016 30 846 24.98 20.5 69 19 -3.4 25.9
10:25 1017 30.03 846 24.98 20.8 69.4 19 -3.2 26.3
10:30 1016 30 846 24.98 20.9 69.7 18 -4 24.8
10:35 1016 30 846 24.98 20.8 69.5 19 -3.8 25.2
10:40 1016 30 846 24.98 20.5 69 19 -3.6 25.5
10:45 1016 30 846 24.98 20.4 68.7 21 -2.6 27.3
10:50 1016 30 846 24.98 20.4 68.6 20 -3.5 25.8
10:55 1016 30 846 24.98 20.4 68.7 20 -3.1 26.4
11:00 1016 30 845 24.95 20.2 68.4 18 -4.7 23.6
11:05 1016 30 845 24.95 20.2 68.3 19 -4.1 24.6
11:10 1016 30 845 24.95 20.2 68.4 20 -3.5 25.7
11:15 1016 30 845 24.95 20.1 68.3 19 -4.3 24.2
11:20 1016 30 845 24.95 20.1 68.1 20 -3.7 25.3
11:25 1016 30 845 24.95 20 68.1 19 -3.9 24.9
11:30 1016 30 845 24.95 20 68 18 -4.6 23.8
11:35 1016 30 845 24.95 20.1 68.1 17 -5.4 22.3
11:40 1016 30 845 24.95 20 68 18 -4.9 23.2
11:45 1016 30 845 24.95 20 68.1 19 -4.3 24.3
11:50 1016 30 845 24.95 20.1 68.1 18 -4.9 23.1
11:55 1016 30 845 24.95 20.1 68.2 18 -4.5 23.9
12:00 1016 30 845 24.95 20.1 68.2 18 -4.6 23.8
12:05 1016 30 845 24.95 20.1 68.2 18 -4.7 23.6
12:10 1016 30 845 24.95 20.1 68.1 19 -3.8 25.2
12:15 1016 30 845 24.95 20.2 68.3 19 -4 24.7
12:20 1016 30 845 24.95 20.4 68.7 18 -4.3 24.2
12:25 1016 30 845 24.95 20.5 68.8 19 -4.1 24.6
12:30 1016 30 845 24.95 20.6 69.1 19 -3.9 24.9
12:35 1016 30 845 24.95 20.6 69.1 19 -3.9 25
12:40 1016 30 845 24.95 20.7 69.3 19 -3.8 25.2
12:45 1016 30 845 24.95 20.7 69.3 19 -3.7 25.3
12:50 1016 30 845 24.95 20.7 69.2 18 -4.1 24.7
12:55 1016 30 845 24.95 20.5 69 20 -3 26.6
13:00 1016 30 845 24.95 20.6 69.1 19 -3.5 25.6
13:05 1016 30 845 24.95 20.6 69.1 20 -3 26.5
13:10 1016 30 845 24.95 20.6 69.1 20 -3.2 26.2
13:15 1016 30 845 24.95 20.6 69.1 20 -3.2 26.2
13:20 1016 30 845 24.95 20.7 69.2 20 -3.2 26.2
13:25 1016 30 845 24.95 20.7 69.3 20 -2.8 26.9
13:30 1015 29.97 845 24.95 20.7 69.2 20 -3.2 26.3
13:35 1015 29.97 845 24.95 20.6 69.1 19 -3.4 25.9
13:40 1015 29.97 845 24.95 20.6 69.1 20 -3.1 26.5
13:45 1015 29.97 844 24.92 20.7 69.3 19 -3.5 25.8
13:50 1015 29.97 844 24.92 20.8 69.5 19 -3.2 26.2
13:55 1015 29.97 844 24.92 21.2 70.1 20 -2.7 27.1
14:00 1015 29.97 844 24.92 21 69.9 20 -2.7 27.1
14:05 1015 29.97 844 24.92 21.1 70 19 -3.4 25.9
14:10 1015 29.97 844 24.92 21.6 70.8 19 -3.2 26.2
14:15 1015 29.97 844 24.92 21.9 71.5 18 -3.1 26.4
14:20 1015 29.97 844 24.92 22.1 71.7 17 -3.7 25.4
14:25 1015 29.97 844 24.92 22 71.6 17 -3.8 25.1
14:30 1015 29.97 844 24.92 21.8 71.3 18 -3.6 25.6
14:35 1015 29.97 844 24.92 21.5 70.7 18 -3.6 25.5
14:40 1015 29.97 844 24.92 21.3 70.4 19 -3.3 26.1
14:45 1015 29.97 844 24.92 21.2 70.2 19 -3.4 25.9
14:50 1015 29.97 844 24.92 21.2 70.2 19 -3 26.6
14:55 1015 29.97 844 24.92 21.3 70.4 19 -2.9 26.8
15:00 1015 29.97 844 24.92 21.3 70.3 19 -3.1 26.4
15:05 1015 29.97 844 24.92 21.5 70.6 20 -2.5 27.4
15:10 1015 29.97 844 24.92 21.5 70.6 19 -3.1 26.4
15:15 1015 29.97 844 24.92 21.4 70.5 19 -2.9 26.7
15:20 1015 29.97 844 24.92 21.5 70.7 19 -2.9 26.7
15:25 1015 29.97 844 24.92 21.6 70.9 19 -2.9 26.7
15:30 1015 29.97 844 24.92 21.6 70.8 19 -3.1 26.4
15:35 1015 29.97 844 24.92 21.6 70.9 19 -3.1 26.5
15:40 1015 29.97 844 24.92 21.8 71.2 19 -2.6 27.3
15:45 1015 29.97 844 24.92 21.9 71.4 20 -2.2 28.1
15:50 1015 29.97 844 24.92 21.9 71.4 19 -2.9 26.8
15:55 1015 29.97 844 24.92 21.8 71.2 18 -3.4 25.8
16:00 1015 29.97 844 24.92 21.8 71.2 19 -2.7 27.1
16:05 1015 29.97 844 24.92 21.5 70.8 18 -4 24.9
16:10 1015 29.97 844 24.92 21.2 70.2 19 -3.2 26.2
16:15 1015 29.97 844 24.92 21.2 70.1 19 -3 26.5
16:20 1015 29.97 844 24.92 21.4 70.5 18 -3.4 25.9
16:25 1015 29.97 844 24.92 21.5 70.6 19 -2.8 26.9
16:30 1015 29.97 844 24.92 21.3 70.3 19 -3.1 26.4
16:35 1015 29.97 844 24.92 21 69.9 19 -3.5 25.6
16:40 1015 29.97 844 24.92 20.8 69.5 20 -2.6 27.2
16:45 1015 29.97 844 24.92 20.6 69.1 20 -2.7 27.2
16:50 1015 29.97 844 24.92 20.3 68.6 22 -2.1 28.1
16:55 1015 29.97 844 24.92 20.1 68.2 21 -2.7 27.2
17:00 1015 29.97 844 24.92 19.9 67.8 22 -2.6 27.4
17:05 1015 29.97 844 24.92 19.7 67.4 22 -2.5 27.6
17:10 1015 29.97 844 24.92 19.5 67.1 22 -2.5 27.5
17:15 1015 29.97 844 24.92 19.3 66.7 22 -2.7 27.2
17:20 1015 29.97 844 24.92 19.2 66.5 22 -2.7 27.1
17:25 1015 29.97 844 24.92 19.1 66.3 23 -2.6 27.3
17:30 1015 29.97 844 24.92 18.9 65.9 23 -2.6 27.4
17:35 1015 29.97 844 24.92 18.7 65.6 23 -2.5 27.5
17:40 1015 29.97 844 24.92 18.4 65.2 24 -2.1 28.2
17:45 1015 29.97 844 24.92 18.2 64.8 25 -2.3 27.9
17:50 1015 29.97 844 24.92 18.2 64.7 24 -2.7 27.2
17:55 1015 29.97 844 24.92 18.2 64.7 25 -2.3 27.9
18:00 1015 29.97 844 24.92 18 64.4 25 -2.3 27.9
18:05 1015 29.97 844 24.92 17.9 64.2 25 -2.3 27.8
18:10 1015 29.97 844 24.92 17.8 64 25 -2.2 28.1
18:15 1015 29.97 844 24.92 17.7 63.8 26 -2.2 28.1
18:20 1015 29.97 844 24.92 17.5 63.6 26 -1.8 28.7
18:25 1015 29.97 844 24.92 17.2 63 27 -2 28.3
18:30 1015 29.97 844 24.92 17.3 63.1 26 -2.5 27.5
18:35 1015 29.97 844 24.92 17.8 64 25 -2.6 27.4
18:40 1015 29.97 844 24.92 17.8 64 25 -2.4 27.7
18:45 1015 29.97 844 24.92 17.8 64 25 -2.6 27.3
18:50 1015 29.97 844 24.92 17.8 64.1 25 -2.2 28
18:55 1015 29.97 844 24.92 17.6 63.7 26 -2.2 28
19:00 1015 29.97 844 24.92 17.5 63.6 25 -2.6 27.2
19:05 1015 29.97 844 24.92 17.7 63.8 24 -2.8 27
19:10 1015 29.97 844 24.92 17.8 64 25 -2.6 27.3
19:15 1015 29.97 844 24.92 17.6 63.6 25 -2.7 27.1
19:20 1015 29.97 844 24.92 17.7 63.8 25 -2.7 27.2
19:25 1015 29.97 844 24.92 17.5 63.4 26 -2.2 28.1
19:30 1015 29.97 844 24.92 17.3 63.1 26 -2.2 28
19:35 1015 29.97 844 24.92 17.2 63 26 -2.2 28.1
19:40 1015 29.97 844 24.92 17.1 62.8 27 -2.2 28.1
19:45 1015 29.97 844 24.92 16.9 62.5 28 -1.8 28.7
19:50 1015 29.97 844 24.92 16.7 62.1 28 -1.8 28.8
19:55 1015 29.97 844 24.92 16.5 61.7 28 -1.9 28.6
20:00 1015 29.97 844 24.92 16.5 61.6 28 -1.9 28.6
20:05 1015 29.97 844 24.92 16.5 61.8 27 -2.3 27.9
20:10 1015 29.97 844 24.92 16.7 62.1 27 -2.1 28.2
20:15 1015 29.97 844 24.92 16.8 62.3 27 -1.9 28.5
20:20 1015 29.97 844 24.92 16.7 62.1 28 -1.9 28.5
20:25 1015 29.97 844 24.92 16.5 61.8 28 -1.8 28.7
20:30 1015 29.97 844 24.92 16.5 61.6 28 -1.8 28.8
20:35 1015 29.97 844 24.92 16.3 61.4 29 -1.8 28.8
20:40 1015 29.97 844 24.92 16.4 61.5 29 -1.6 29.2
20:45 1015 29.97 844 24.92 16.3 61.3 29 -1.8 28.8
20:50 1015 29.97 844 24.92 16.4 61.5 28 -1.9 28.6
20:55 1015 29.97 844 24.92 16.4 61.6 28 -1.8 28.7
21:00 1015 29.97 844 24.92 16.3 61.4 29 -1.6 29.1
21:05 1015 29.97 844 24.92 16.3 61.3 29 -1.6 29.1
21:10 1015 29.97 844 24.92 16.3 61.4 28 -2 28.4
21:15 1015 29.97 844 24.92 16.7 62 28 -1.8 28.7
21:20 1015 29.97 844 24.92 16.8 62.2 28 -1.8 28.8
21:25 1015 29.97 844 24.92 16.8 62.2 28 -1.8 28.8
21:30 1015 29.97 844 24.92 16.6 61.9 29 -1.4 29.6
21:35 1015 29.97 844 24.92 16.1 60.9 32 -0.5 31
21:40 1015 29.97 844 24.92 15.4 59.7 33 -0.8 30.6
21:45 1015 29.97 844 24.92 15 59 33 -1 30.2
21:50 1015 29.97 844 24.92 15.1 59.3 34 -0.3 31.4
21:55 1015 29.97 844 24.92 15.2 59.3 34 -0.6 31
22:00 1015 29.97 844 24.92 14.8 58.6 34 -0.7 30.7
22:05 1015 29.97 844 24.92 14.5 58.1 35 -0.7 30.7
22:10 1015 29.97 844 24.92 14.3 57.8 35 -0.7 30.7
22:15 1015 29.97 844 24.92 14.2 57.5 34 -1.3 29.7
22:20 1015 29.97 844 24.92 14.5 58.1 33 -1.5 29.3
22:25 1015 29.97 844 24.92 14.7 58.4 33 -1.2 29.9
22:30 1015 29.97 844 24.92 14.6 58.3 35 -0.5 31.1
22:35 1015 29.97 844 24.92 14.3 57.8 34 -1.2 29.8
22:40 1015 29.97 844 24.92 14.4 57.9 33 -1.4 29.5
22:45 1015 29.97 844 24.92 14.6 58.2 32 -1.6 29
22:50 1015 29.97 844 24.92 15.1 59.1 31 -2.1 28.3
22:55 1015 29.97 844 24.92 15.5 59.9 31 -1.5 29.3
23:00 1015 29.97 844 24.92 15.3 59.6 35 -0.1 31.9
23:05 1015 29.97 844 24.92 14 57.1 38 -0.1 31.9
23:10 1015 29.97 844 24.92 13.7 56.7 37 -0.8 30.6
23:15 1015 29.97 844 24.92 13.7 56.7 39 0.3 32.5
23:20 1015 29.97 844 24.92 13.7 56.6 38 -0.2 31.6
23:25 1015 29.97 844 24.92 14 57.2 37 -0.4 31.3
23:30 1015 29.97 844 24.92 14.1 57.4 34 -1.4 29.5
23:35 1015 29.97 844 24.92 14.3 57.8 34 -1.3 29.6
23:40 1015 29.97 844 24.92 14.5 58.1 35 -0.7 30.7
23:45 1015 29.97 844 24.92 14.5 58 35 -0.8 30.5
23:50 1015 29.97 844 24.92 14.6 58.2 35 -0.5 31.2
23:55 1015 29.97 844 24.92 14.3 57.7 35 -0.9 30.5
24:00 1015 29.97 844 24.92 14.2 57.6 36 -0.7 30.8